Open Full Screen Window  High Contrast Mode
Wind Gusting 00 knots
03
September 29, 2016 8:35 AM CDT
Weather Information
Wind Direction
  140 °
Wind Speed
  03 kt (3 mph)
Wind Gust
  00 kt (0 mph)
Altimeter
30.08 in
Visibility
7 SM
Temperature
13° C
55° F
Dewpoint
13° C
55° F
Humidity
100%
Sky Condition
Broken @ 700 ft
IFR

METAR KAXV 291335Z AUTO 14003KT 7SM BKN007 13/13 A3008 RMK AO2

*Background is not an actual portrayal of the airport.